Time;durP1;ratioP1;P1;durP2;ratioP2;P2;SDS_P1;SDS_P2;PMS_P1;PMS_P2;Temp;Humidity;BMP_temperature;BMP_pressure;BME280_temperature;BME280_humidity;BME280_pressure;Samples;Min_cycle;Max_cycle;Signal;HPM_P1;HPM_P2
2022/04/05 00:01:47;;;;;;;;;;;6.90;92.20;;;;;;5059240;28;19938;-67
2022/04/05 00:04:13;;;;;;;;;;;7.00;92.00;;;;;;5055889;28;19982;-67
2022/04/05 00:06:38;;;;;;;;;;;7.00;92.00;;;;;;5056553;28;19986;-67
2022/04/05 00:09:03;;;;;;;;;;;7.00;92.00;;;;;;5062697;28;20620;-67
2022/04/05 00:11:29;;;;;;;;;;;7.00;92.00;;;;;;5057160;28;19913;-67
2022/04/05 00:13:54;;;;;;;;;;;7.00;92.00;;;;;;5056935;28;19913;-67
2022/04/05 00:16:20;;;;;;;;;;;7.00;92.10;;;;;;5059173;28;19916;-67
2022/04/05 00:18:45;;;;;;;;;;;7.10;92.20;;;;;;5061774;28;19912;-67
2022/04/05 00:21:11;;;;;;;;;;;7.00;92.30;;;;;;5049325;28;20015;-67
2022/04/05 00:23:36;;;;;;;;;;;7.00;92.00;;;;;;5054462;28;19913;-67
2022/04/05 00:26:02;;;;;;;;;;;7.10;92.10;;;;;;5059387;28;19915;-67
2022/04/05 00:28:27;;;;;;;;;;;7.10;92.00;;;;;;5056286;28;19909;-67
2022/04/05 00:30:53;;;;;;;;;;;7.10;92.10;;;;;;5057772;28;19912;-67
2022/04/05 00:33:19;;;;;;;;;;;7.10;92.20;;;;;;5060564;28;19923;-67
2022/04/05 00:35:44;;;;;;;;;;;7.10;92.00;;;;;;5050636;28;19913;-67
2022/04/05 00:38:10;;;;;;;;;;;7.10;91.90;;;;;;5050331;28;19913;-67
2022/04/05 00:40:38;;;;;;;;;;;7.10;92.10;;;;;;5052680;28;20579;-67
2022/04/05 00:43:05;;;;;;;;;;;7.20;91.90;;;;;;5047278;28;19995;-67
2022/04/05 00:45:34;;;;;;;;;;;7.20;91.90;;;;;;5052537;28;19909;-67
2022/04/05 00:47:59;;;;;;;;;;;7.20;91.90;;;;;;5053180;28;19927;-67
2022/04/05 00:50:26;;;;;;;;;;;7.20;91.90;;;;;;5056521;28;19912;-67
2022/04/05 00:52:51;;;;;;;;;;;7.20;91.90;;;;;;5047182;28;20666;-67
2022/04/05 00:55:19;;;;;;;;;;;7.20;91.90;;;;;;5054167;28;19919;-67
2022/04/05 00:57:45;;;;;;;;;;;7.20;91.90;;;;;;5055718;28;19913;-66
2022/04/05 01:00:11;;;;;;;;;;;7.20;91.90;;;;;;5060989;28;19923;-66
2022/04/05 01:02:37;;;;;;;;;;;7.20;92.00;;;;;;5047719;28;19960;-67
2022/04/05 01:05:03;;;;;;;;;;;7.30;92.10;;;;;;5050367;28;20472;-67
2022/04/05 01:07:31;;;;;;;;;;;7.20;92.20;;;;;;5057880;28;19912;-67
2022/04/05 01:09:57;;;;;;;;;;;7.30;92.10;;;;;;5058707;28;19912;-67
2022/04/05 01:12:23;;;;;;;;;;;7.30;92.20;;;;;;5054619;28;19916;-67
2022/04/05 01:14:49;;;;;;;;;;;7.30;92.10;;;;;;5056293;28;20269;-67
2022/04/05 01:17:15;;;;;;;;;;;7.30;92.40;;;;;;5058407;28;19947;-67
2022/04/05 01:19:40;;;;;;;;;;;7.30;92.00;;;;;;5051400;28;19917;-67
2022/04/05 01:22:06;;;;;;;;;;;7.30;91.90;;;;;;5053397;28;19913;-67
2022/04/05 01:24:32;;;;;;;;;;;7.30;91.90;;;;;;5057410;28;19959;-67
2022/04/05 01:26:58;;;;;;;;;;;7.30;92.10;;;;;;5052951;28;19935;-67
2022/04/05 01:29:24;;;;;;;;;;;7.30;92.00;;;;;;5051203;28;20654;-67
2022/04/05 01:31:51;;;;;;;;;;;7.30;92.00;;;;;;5050105;28;19912;-67
2022/04/05 01:34:17;;;;;;;;;;;7.30;91.90;;;;;;5044421;28;19946;-67
2022/04/05 01:36:44;;;;;;;;;;;7.40;92.20;;;;;;5048721;28;19952;-67
2022/04/05 01:39:10;;;;;;;;;;;7.40;92.00;;;;;;5052407;28;19920;-67
2022/04/05 01:41:36;;;;;;;;;;;7.40;91.90;;;;;;5056257;28;19916;-67
2022/04/05 01:44:02;;;;;;;;;;;7.40;92.70;;;;;;5058246;28;19913;-67
2022/04/05 01:46:28;;;;;;;;;;;7.40;92.20;;;;;;5053498;28;19991;-67
2022/04/05 01:48:53;;;;;;;;;;;7.40;92.20;;;;;;5042894;28;20035;-67
2022/04/05 01:51:19;;;;;;;;;;;7.40;92.10;;;;;;5056832;28;19974;-67
2022/04/05 01:53:44;;;;;;;;;;;7.40;92.10;;;;;;5051242;28;19908;-67
2022/04/05 01:56:10;;;;;;;;;;;7.40;92.00;;;;;;5050214;28;19912;-67
2022/04/05 01:58:36;;;;;;;;;;;7.40;92.10;;;;;;5055647;28;19975;-67
2022/04/05 02:01:02;;;;;;;;;;;7.40;91.90;;;;;;5055249;28;20644;-67
2022/04/05 02:03:28;;;;;;;;;;;7.40;92.00;;;;;;5048840;28;20407;-67
2022/04/05 02:05:54;;;;;;;;;;;7.40;91.80;;;;;;5052555;28;19917;-67
2022/04/05 02:08:19;;;;;;;;;;;7.40;91.70;;;;;;5058318;28;19912;-67
2022/04/05 02:10:45;;;;;;;;;;;7.40;91.70;;;;;;5043418;28;19916;-67
2022/04/05 02:13:10;;;;;;;;;;;7.40;91.70;;;;;;5053725;28;20003;-67
2022/04/05 02:15:36;;;;;;;;;;;7.40;91.70;;;;;;5055327;28;20652;-67
2022/04/05 02:18:01;;;;;;;;;;;7.40;91.50;;;;;;5054035;28;19944;-67
2022/04/05 02:20:27;;;;;;;;;;;7.40;91.40;;;;;;5050040;28;19923;-67
2022/04/05 02:22:52;;;;;;;;;;;7.40;91.40;;;;;;5049761;28;19913;-67
2022/04/05 02:25:18;;;;;;;;;;;7.40;91.30;;;;;;5055303;28;19969;-67
2022/04/05 02:27:43;;;;;;;;;;;7.40;91.30;;;;;;5052037;28;19909;-67
2022/04/05 02:30:10;;;;;;;;;;;7.40;91.50;;;;;;5052103;28;19912;-67
2022/04/05 02:32:35;;;;;;;;;;;7.40;91.20;;;;;;5054122;28;19919;-67
2022/04/05 02:35:01;;;;;;;;;;;7.40;91.20;;;;;;5059666;28;19917;-67
2022/04/05 02:37:26;;;;;;;;;;;7.40;91.10;;;;;;5050785;28;19922;-67
2022/04/05 02:39:52;;;;;;;;;;;7.40;91.10;;;;;;5050992;28;20591;-67
2022/04/05 02:42:18;;;;;;;;;;;7.40;91.00;;;;;;5055439;28;19917;-67
2022/04/05 02:44:43;;;;;;;;;;;7.40;90.90;;;;;;5051225;28;19919;-67
2022/04/05 02:47:10;;;;;;;;;;;7.30;90.90;;;;;;5053884;28;19919;-67
2022/04/05 02:49:36;;;;;;;;;;;7.30;91.00;;;;;;5054383;28;19921;-67
2022/04/05 02:52:02;;;;;;;;;;;7.30;90.90;;;;;;5050660;28;19917;-67
2022/04/05 02:54:27;;;;;;;;;;;7.30;90.90;;;;;;5047342;28;20110;-67
2022/04/05 02:56:53;;;;;;;;;;;7.30;90.90;;;;;;5050598;28;20441;-67
2022/04/05 02:59:18;;;;;;;;;;;7.30;90.90;;;;;;5061640;28;19923;-67
2022/04/05 03:01:44;;;;;;;;;;;7.30;90.90;;;;;;5056079;28;20003;-67
2022/04/05 03:04:09;;;;;;;;;;;7.30;90.80;;;;;;5059163;28;19913;-67
2022/04/05 03:06:35;;;;;;;;;;;7.30;90.80;;;;;;5055728;28;20007;-67
2022/04/05 03:09:00;;;;;;;;;;;7.30;90.90;;;;;;5057775;28;20341;-67
2022/04/05 03:11:26;;;;;;;;;;;7.30;90.90;;;;;;5056221;28;20025;-67
2022/04/05 03:13:52;;;;;;;;;;;7.30;90.90;;;;;;5055574;28;20318;-67
2022/04/05 03:16:17;;;;;;;;;;;7.20;90.90;;;;;;5047799;28;19915;-67
2022/04/05 03:18:46;;;;;;;;;;;7.30;90.80;;;;;;5051822;28;21855;-67
2022/04/05 03:21:12;;;;;;;;;;;7.20;90.90;;;;;;5055342;28;19916;-67
2022/04/05 03:23:38;;;;;;;;;;;7.30;90.90;;;;;;5058792;28;19932;-67
2022/04/05 03:26:03;;;;;;;;;;;7.30;90.80;;;;;;5052160;28;20630;-67
2022/04/05 03:28:29;;;;;;;;;;;7.30;90.60;;;;;;5046965;28;19919;-67
2022/04/05 03:30:54;;;;;;;;;;;7.30;90.70;;;;;;5052125;28;20457;-67
2022/04/05 03:33:20;;;;;;;;;;;7.30;91.00;;;;;;5044093;28;19958;-67
2022/04/05 03:35:46;;;;;;;;;;;7.20;91.10;;;;;;5053353;28;20050;-67
2022/04/05 03:38:11;;;;;;;;;;;7.20;91.10;;;;;;5055790;28;19916;-67
2022/04/05 03:40:37;;;;;;;;;;;7.20;91.30;;;;;;5056765;28;19977;-67
2022/04/05 03:43:02;;;;;;;;;;;7.20;91.30;;;;;;5053511;28;20603;-67
2022/04/05 03:45:28;;;;;;;;;;;7.20;91.20;;;;;;5047045;28;19919;-67
2022/04/05 03:47:54;;;;;;;;;;;7.20;91.10;;;;;;5052296;28;19920;-67
2022/04/05 03:50:22;;;;;;;;;;;7.20;91.10;;;;;;5055740;28;20393;-67
2022/04/05 03:52:47;;;;;;;;;;;7.20;91.20;;;;;;5051490;28;19912;-67
2022/04/05 03:55:13;;;;;;;;;;;7.20;91.10;;;;;;5050748;28;19919;-67
2022/04/05 03:57:38;;;;;;;;;;;7.20;91.30;;;;;;5053203;28;19916;-67
2022/04/05 04:00:04;;;;;;;;;;;7.20;91.20;;;;;;5058866;28;19917;-67
2022/04/05 04:02:34;;;;;;;;;;;7.20;91.20;;;;;;5060491;28;19999;-67
2022/04/05 04:04:59;;;;;;;;;;;7.20;91.30;;;;;;5046062;28;19912;-67
2022/04/05 04:07:25;;;;;;;;;;;7.20;91.40;;;;;;5056821;28;21460;-67
2022/04/05 04:09:51;;;;;;;;;;;7.20;91.40;;;;;;5059399;28;19917;-67
2022/04/05 04:12:17;;;;;;;;;;;7.20;91.40;;;;;;5051426;28;20319;-67
2022/04/05 04:14:42;;;;;;;;;;;7.20;91.30;;;;;;5057825;28;20102;-67
2022/04/05 04:17:08;;;;;;;;;;;7.20;91.10;;;;;;5045689;28;19966;-67
2022/04/05 04:19:34;;;;;;;;;;;7.20;91.10;;;;;;5051208;28;19962;-67
2022/04/05 04:22:00;;;;;;;;;;;7.20;91.00;;;;;;5055250;28;19935;-67
2022/04/05 04:24:25;;;;;;;;;;;7.20;90.90;;;;;;5059190;28;19916;-67
2022/04/05 04:26:51;;;;;;;;;;;7.20;91.00;;;;;;5052285;28;20146;-67
2022/04/05 04:29:16;;;;;;;;;;;7.20;91.00;;;;;;5056580;28;19913;-67
2022/04/05 04:31:42;;;;;;;;;;;7.20;91.00;;;;;;5050899;28;20098;-67
2022/04/05 04:34:08;;;;;;;;;;;7.20;90.90;;;;;;5056604;28;19909;-67
2022/04/05 04:36:33;;;;;;;;;;;7.20;90.90;;;;;;5055839;28;19920;-67
2022/04/05 04:38:59;;;;;;;;;;;7.20;90.90;;;;;;5053051;28;19947;-67
2022/04/05 04:41:24;;;;;;;;;;;7.20;90.90;;;;;;5056188;28;19974;-67
2022/04/05 04:43:50;;;;;;;;;;;7.20;90.90;;;;;;5052516;28;19920;-67
2022/04/05 04:46:16;;;;;;;;;;;7.20;90.80;;;;;;5052593;28;19920;-67
2022/04/05 04:48:41;;;;;;;;;;;7.20;90.70;;;;;;5059351;28;20514;-67
2022/04/05 04:51:08;;;;;;;;;;;7.20;90.80;;;;;;5051423;28;19912;-67
2022/04/05 04:53:33;;;;;;;;;;;7.20;90.80;;;;;;5055495;28;20123;-67
2022/04/05 04:55:59;;;;;;;;;;;7.20;91.10;;;;;;5050168;28;20033;-67
2022/04/05 04:58:24;;;;;;;;;;;7.20;90.90;;;;;;5056470;28;19917;-67
2022/04/05 05:00:50;;;;;;;;;;;7.20;90.70;;;;;;5056272;28;19916;-67
2022/04/05 05:03:18;;;;;;;;;;;7.20;91.00;;;;;;5051510;28;20403;-67
2022/04/05 05:05:44;;;;;;;;;;;7.20;91.00;;;;;;5052674;28;19999;-67
2022/04/05 05:08:09;;;;;;;;;;;7.20;90.90;;;;;;5055021;28;19996;-67
2022/04/05 05:10:35;;;;;;;;;;;7.20;90.80;;;;;;5056715;28;20272;-67
2022/04/05 05:13:00;;;;;;;;;;;7.20;90.90;;;;;;5051462;28;19920;-67
2022/04/05 05:15:26;;;;;;;;;;;7.20;91.00;;;;;;5050384;28;19912;-67
2022/04/05 05:17:51;;;;;;;;;;;7.20;90.90;;;;;;5054933;28;19993;-67
2022/04/05 05:20:17;;;;;;;;;;;7.20;90.90;;;;;;5042184;28;20354;-67
2022/04/05 05:22:43;;;;;;;;;;;7.20;90.90;;;;;;5053665;28;20385;-67
2022/04/05 05:25:09;;;;;;;;;;;7.20;90.90;;;;;;5052241;28;19935;-67
2022/04/05 05:27:37;;;;;;;;;;;7.20;91.00;;;;;;5053020;28;19981;-67
2022/04/05 05:30:05;;;;;;;;;;;7.20;90.90;;;;;;5048999;28;20003;-67
2022/04/05 05:32:30;;;;;;;;;;;7.20;91.00;;;;;;5052324;28;20285;-67
2022/04/05 05:34:56;;;;;;;;;;;7.20;91.00;;;;;;5052003;28;19916;-67
2022/04/05 05:37:21;;;;;;;;;;;7.20;90.90;;;;;;5053263;28;19920;-67
2022/04/05 05:39:47;;;;;;;;;;;7.20;90.90;;;;;;5050511;28;19985;-67
2022/04/05 05:42:13;;;;;;;;;;;7.20;90.70;;;;;;5048791;28;19908;-67
2022/04/05 05:44:38;;;;;;;;;;;7.20;90.70;;;;;;5052181;28;19916;-67
2022/04/05 05:47:05;;;;;;;;;;;7.20;90.80;;;;;;5053520;28;19936;-67
2022/04/05 05:49:31;;;;;;;;;;;7.20;90.50;;;;;;5053350;28;19916;-67
2022/04/05 05:51:56;;;;;;;;;;;7.20;90.40;;;;;;5050343;28;19981;-67
2022/04/05 05:54:22;;;;;;;;;;;7.20;90.50;;;;;;5055290;28;19940;-67
2022/04/05 05:56:47;;;;;;;;;;;7.20;90.40;;;;;;5050689;28;19917;-67
2022/04/05 05:59:13;;;;;;;;;;;7.20;90.40;;;;;;5053473;28;20416;-67
2022/04/05 06:01:38;;;;;;;;;;;7.20;90.20;;;;;;5056935;28;19940;-67
2022/04/05 06:04:04;;;;;;;;;;;7.20;90.10;;;;;;5051751;28;19913;-67
2022/04/05 06:06:30;;;;;;;;;;;7.20;90.00;;;;;;5051997;28;19913;-67
2022/04/05 06:08:56;;;;;;;;;;;7.20;89.80;;;;;;5051265;28;19913;-67
2022/04/05 06:11:22;;;;;;;;;;;7.20;89.70;;;;;;5053274;28;19941;-67
2022/04/05 06:13:48;;;;;;;;;;;7.20;89.60;;;;;;5052271;28;19944;-67
2022/04/05 06:16:14;;;;;;;;;;;7.20;89.50;;;;;;5050544;28;20015;-67
2022/04/05 06:18:42;;;;;;;;;;;7.20;89.60;;;;;;5053602;28;20015;-67
2022/04/05 06:21:08;;;;;;;;;;;7.20;89.90;;;;;;5055600;28;19916;-67
2022/04/05 06:23:33;;;;;;;;;;;7.20;90.00;;;;;;5049814;28;19963;-67
2022/04/05 06:25:59;;;;;;;;;;;7.20;89.80;;;;;;5050013;28;19914;-67
2022/04/05 06:28:24;;;;;;;;;;;7.20;89.40;;;;;;5045110;28;19912;-67
2022/04/05 06:30:50;;;;;;;;;;;7.20;89.30;;;;;;5054246;28;19949;-67
2022/04/05 06:33:17;;;;;;;;;;;7.20;89.20;;;;;;5051628;28;19913;-67
2022/04/05 06:35:48;;;;;;;;;;;7.20;89.10;;;;;;5059077;28;19927;-67
2022/04/05 06:38:13;;;;;;;;;;;7.20;89.10;;;;;;5053365;28;19909;-67
2022/04/05 06:40:41;;;;;;;;;;;7.20;89.10;;;;;;5041884;28;19917;-67
2022/04/05 06:43:07;;;;;;;;;;;7.30;89.10;;;;;;5054154;28;19913;-67
2022/04/05 06:45:33;;;;;;;;;;;7.20;89.00;;;;;;5059869;28;19924;-67
2022/04/05 06:47:58;;;;;;;;;;;7.30;89.10;;;;;;5057392;28;19917;-67
2022/04/05 06:50:26;;;;;;;;;;;7.30;89.30;;;;;;5057652;28;19916;-67
2022/04/05 06:52:53;;;;;;;;;;;7.30;89.40;;;;;;5057989;28;19917;-67
2022/04/05 06:55:19;;;;;;;;;;;7.30;89.60;;;;;;5053763;28;19916;-67
2022/04/05 06:57:45;;;;;;;;;;;7.30;89.80;;;;;;5050835;28;19921;-67
2022/04/05 07:00:11;;;;;;;;;;;7.30;89.90;;;;;;5057494;28;19956;-67
2022/04/05 07:02:37;;;;;;;;;;;7.30;90.00;;;;;;5062101;28;19919;-67
2022/04/05 07:05:04;;;;;;;;;;;7.30;90.00;;;;;;5052779;28;19984;-67
2022/04/05 07:07:29;;;;;;;;;;;7.30;90.00;;;;;;5053250;28;20289;-67
2022/04/05 07:09:55;;;;;;;;;;;7.30;90.00;;;;;;5060337;28;19908;-67
2022/04/05 07:12:20;;;;;;;;;;;7.40;90.20;;;;;;5053809;28;20036;-67
2022/04/05 07:14:46;;;;;;;;;;;7.40;90.40;;;;;;5053070;28;20325;-67
2022/04/05 07:17:11;;;;;;;;;;;7.40;90.60;;;;;;5052780;28;19998;-67
2022/04/05 07:19:37;;;;;;;;;;;7.40;90.50;;;;;;5058303;28;19977;-67
2022/04/05 07:22:03;;;;;;;;;;;7.50;90.70;;;;;;5055845;28;19942;-67
2022/04/05 07:24:29;;;;;;;;;;;7.50;90.90;;;;;;5053396;28;19913;-67
2022/04/05 07:26:55;;;;;;;;;;;7.50;90.40;;;;;;5056431;28;19920;-67
2022/04/05 07:29:20;;;;;;;;;;;7.60;90.90;;;;;;5064932;28;19913;-67
2022/04/05 07:31:46;;;;;;;;;;;7.60;90.80;;;;;;5050521;28;19924;-67
2022/04/05 07:34:11;;;;;;;;;;;7.60;90.70;;;;;;5056389;28;19921;-67
2022/04/05 07:36:37;;;;;;;;;;;7.60;90.90;;;;;;5060263;28;19912;-67
2022/04/05 07:39:02;;;;;;;;;;;7.60;90.90;;;;;;5054846;28;19920;-67
2022/04/05 07:41:28;;;;;;;;;;;7.70;91.00;;;;;;5052628;28;19913;-67
2022/04/05 07:43:53;;;;;;;;;;;7.70;91.10;;;;;;5057484;28;19914;-67
2022/04/05 07:46:19;;;;;;;;;;;7.70;91.10;;;;;;5061391;28;19916;-67
2022/04/05 07:48:47;;;;;;;;;;;7.70;91.20;;;;;;5052810;28;20614;-67
2022/04/05 07:51:13;;;;;;;;;;;7.80;91.50;;;;;;5056613;28;19979;-67
2022/04/05 07:53:38;;;;;;;;;;;7.80;91.60;;;;;;5060506;28;19995;-67
2022/04/05 07:56:04;;;;;;;;;;;7.80;91.70;;;;;;5053032;28;20000;-67
2022/04/05 07:58:30;;;;;;;;;;;7.80;91.50;;;;;;5053925;28;19960;-67
2022/04/05 08:00:55;;;;;;;;;;;7.80;91.60;;;;;;5056075;28;19992;-67
2022/04/05 08:03:22;;;;;;;;;;;7.90;91.40;;;;;;5060047;28;19909;-67
2022/04/05 08:05:47;;;;;;;;;;;7.90;91.40;;;;;;5053992;28;20382;-67
2022/04/05 08:08:14;;;;;;;;;;;7.90;91.40;;;;;;5055921;28;19908;-67
2022/04/05 08:10:39;;;;;;;;;;;7.90;91.50;;;;;;5060543;28;19908;-67
2022/04/05 08:13:05;;;;;;;;;;;7.90;91.50;;;;;;5054493;28;19913;-67
2022/04/05 08:15:30;;;;;;;;;;;8.00;91.60;;;;;;5041533;28;19912;-67
2022/04/05 08:17:57;;;;;;;;;;;8.00;91.60;;;;;;5056435;28;19952;-67
2022/04/05 08:20:23;;;;;;;;;;;8.00;91.80;;;;;;5046136;28;19921;-67
2022/04/05 08:22:48;;;;;;;;;;;8.00;91.70;;;;;;5052894;28;19916;-67
2022/04/05 08:25:14;;;;;;;;;;;8.00;91.60;;;;;;5054571;28;19963;-67
2022/04/05 08:27:41;;;;;;;;;;;8.00;91.90;;;;;;5058968;28;19920;-67
2022/04/05 08:30:08;;;;;;;;;;;8.00;91.70;;;;;;5058077;28;19923;-67
2022/04/05 08:32:36;;;;;;;;;;;8.10;91.80;;;;;;5052848;28;19919;-67
2022/04/05 08:35:03;;;;;;;;;;;8.10;91.80;;;;;;5054064;28;19948;-67
2022/04/05 08:37:28;;;;;;;;;;;8.10;91.70;;;;;;5055513;28;20164;-67
2022/04/05 08:39:54;;;;;;;;;;;8.10;91.60;;;;;;5040197;28;20106;-67
2022/04/05 08:42:20;;;;;;;;;;;8.10;91.70;;;;;;5057343;28;20020;-67
2022/04/05 08:44:46;;;;;;;;;;;8.10;91.90;;;;;;5059301;28;20415;-67
2022/04/05 08:47:12;;;;;;;;;;;8.20;91.80;;;;;;5057781;28;19933;-67
2022/04/05 08:49:38;;;;;;;;;;;8.20;92.00;;;;;;5056671;28;19921;-67
2022/04/05 08:52:03;;;;;;;;;;;8.20;91.80;;;;;;5055700;28;19954;-67
2022/04/05 08:54:29;;;;;;;;;;;8.20;91.80;;;;;;5055093;28;20111;-67
2022/04/05 08:56:54;;;;;;;;;;;8.20;91.70;;;;;;5049327;28;20383;-67
2022/04/05 08:59:20;;;;;;;;;;;8.20;91.70;;;;;;5057316;28;19916;-67
2022/04/05 09:01:45;;;;;;;;;;;8.20;91.90;;;;;;5047173;28;19913;-67
2022/04/05 09:04:11;;;;;;;;;;;8.30;91.90;;;;;;5046571;28;20188;-67
2022/04/05 09:06:36;;;;;;;;;;;8.30;91.80;;;;;;5052214;28;19913;-67
2022/04/05 09:09:09;;;;;;;;;;;8.30;92.00;;;;;;5060209;28;19962;-68
2022/04/05 09:11:35;;;;;;;;;;;8.30;91.80;;;;;;5059123;28;19962;-67
2022/04/05 09:14:01;;;;;;;;;;;8.40;92.00;;;;;;5045897;28;19912;-67
2022/04/05 09:16:33;;;;;;;;;;;8.40;91.80;;;;;;5056873;28;19920;-67
2022/04/05 09:19:15;;;;;;;;;;;8.40;91.70;;;;;;5060268;28;19916;-67
2022/04/05 09:21:52;;;;;;;;;;;8.40;91.70;;;;;;5053521;28;19913;-67
2022/04/05 09:24:18;;;;;;;;;;;8.40;91.80;;;;;;5053165;28;19919;-67
2022/04/05 09:26:44;;;;;;;;;;;8.50;91.80;;;;;;5055082;28;20317;-67
2022/04/05 09:29:10;;;;;;;;;;;8.40;92.00;;;;;;5061141;28;19959;-67
2022/04/05 09:31:48;;;;;;;;;;;8.50;91.90;;;;;;5049262;28;19916;-67
2022/04/05 09:34:19;;;;;;;;;;;8.60;92.10;;;;;;5054610;28;20349;-67
2022/04/05 09:36:48;;;;;;;;;;;8.60;91.80;;;;;;5057090;28;19974;-67
2022/04/05 09:39:24;;;;;;;;;;;8.60;91.90;;;;;;5057676;28;19921;-67
2022/04/05 09:42:00;;;;;;;;;;;8.60;91.80;;;;;;5054408;28;20327;-67
2022/04/05 09:44:30;;;;;;;;;;;8.60;92.10;;;;;;5058426;28;20265;-68
2022/04/05 09:47:02;;;;;;;;;;;8.60;91.80;;;;;;5055137;28;19921;-67
2022/04/05 09:49:32;;;;;;;;;;;8.60;91.90;;;;;;5053274;28;20373;-67
2022/04/05 09:51:57;;;;;;;;;;;8.60;91.90;;;;;;5055139;28;20380;-67
2022/04/05 09:54:30;;;;;;;;;;;8.60;91.90;;;;;;5050935;28;19909;-67
2022/04/05 09:57:06;;;;;;;;;;;8.70;91.90;;;;;;5049487;28;20003;-67
2022/04/05 09:59:42;;;;;;;;;;;8.70;91.80;;;;;;5056563;28;20284;-68
2022/04/05 10:02:12;;;;;;;;;;;8.70;91.70;;;;;;5057966;28;19988;-67
2022/04/05 10:04:56;;;;;;;;;;;8.70;92.30;;;;;;5049656;28;19977;-67
2022/04/05 10:07:22;;;;;;;;;;;8.70;92.00;;;;;;5053087;28;20035;-68
2022/04/05 10:09:47;;;;;;;;;;;8.70;92.00;;;;;;5065753;28;19987;-67
2022/04/05 10:12:13;;;;;;;;;;;8.80;92.10;;;;;;5062020;28;19913;-67
2022/04/05 10:14:38;;;;;;;;;;;8.80;92.30;;;;;;5053358;28;19908;-67
2022/04/05 10:17:04;;;;;;;;;;;8.80;92.30;;;;;;5058454;28;20365;-67
2022/04/05 10:19:30;;;;;;;;;;;8.90;92.30;;;;;;5064491;28;19967;-67
2022/04/05 10:21:55;;;;;;;;;;;8.90;92.20;;;;;;5059371;28;19940;-67
2022/04/05 10:24:21;;;;;;;;;;;9.00;92.10;;;;;;5048442;28;19913;-67
2022/04/05 10:26:48;;;;;;;;;;;9.00;92.50;;;;;;5061549;28;20451;-67
2022/04/05 10:29:15;;;;;;;;;;;9.00;92.50;;;;;;5067392;28;19915;-68
2022/04/05 10:31:46;;;;;;;;;;;9.00;92.40;;;;;;5051276;28;20039;-67
2022/04/05 10:34:14;;;;;;;;;;;9.10;92.20;;;;;;5059257;28;19962;-67
2022/04/05 10:36:40;;;;;;;;;;;9.10;92.40;;;;;;5064215;28;19919;-67
2022/04/05 10:39:12;;;;;;;;;;;9.10;92.40;;;;;;5063129;28;20536;-67
2022/04/05 10:41:38;;;;;;;;;;;9.10;92.10;;;;;;5056344;28;19963;-67
2022/04/05 10:44:18;;;;;;;;;;;9.20;92.30;;;;;;5043307;28;20019;-67
2022/04/05 10:46:53;;;;;;;;;;;9.20;92.40;;;;;;5059296;28;19956;-67
2022/04/05 10:49:35;;;;;;;;;;;9.20;92.40;;;;;;5056778;28;19928;-67
2022/04/05 10:52:08;;;;;;;;;;;9.20;92.30;;;;;;5056365;28;20329;-67
2022/04/05 10:54:41;;;;;;;;;;;9.20;92.20;;;;;;5058804;28;20322;-67
2022/04/05 10:57:26;;;;;;;;;;;9.30;92.30;;;;;;5053458;28;19916;-67
2022/04/05 11:00:11;;;;;;;;;;;9.30;92.40;;;;;;5044120;28;19916;-67
2022/04/05 11:02:44;;;;;;;;;;;9.30;92.50;;;;;;5060154;28;19919;-67
2022/04/05 11:05:18;;;;;;;;;;;9.30;92.40;;;;;;5052989;28;19920;-67
2022/04/05 11:07:59;;;;;;;;;;;9.40;92.60;;;;;;5059443;28;19920;-67
2022/04/05 11:10:28;;;;;;;;;;;9.40;92.60;;;;;;5058503;28;19934;-67
2022/04/05 11:13:13;;;;;;;;;;;9.40;92.40;;;;;;5056814;28;19936;-67
2022/04/05 11:15:40;;;;;;;;;;;9.40;92.10;;;;;;5056256;28;19912;-67
2022/04/05 11:18:05;;;;;;;;;;;9.40;92.10;;;;;;5047311;28;20366;-67
2022/04/05 11:20:31;;;;;;;;;;;9.40;92.20;;;;;;5061877;28;19917;-67
2022/04/05 11:23:00;;;;;;;;;;;9.40;92.10;;;;;;5052729;28;20019;-67
2022/04/05 11:25:27;;;;;;;;;;;9.40;92.00;;;;;;5058335;28;19912;-67
2022/04/05 11:27:53;;;;;;;;;;;9.40;91.80;;;;;;5042539;28;19998;-67
2022/04/05 11:30:27;;;;;;;;;;;9.50;92.30;;;;;;5042810;28;19913;-67
2022/04/05 11:33:17;;;;;;;;;;;9.60;92.60;;;;;;5057693;28;19939;-67
2022/04/05 11:35:43;;;;;;;;;;;9.60;92.40;;;;;;5061349;28;19912;-68
2022/04/05 11:38:12;;;;;;;;;;;9.60;92.20;;;;;;5060444;28;19913;-67
2022/04/05 11:40:41;;;;;;;;;;;9.60;92.40;;;;;;5059752;28;19924;-67
2022/04/05 11:43:15;;;;;;;;;;;9.60;92.40;;;;;;5061133;28;19913;-67
2022/04/05 11:45:41;;;;;;;;;;;9.60;92.40;;;;;;5064978;28;20007;-67
2022/04/05 11:48:13;;;;;;;;;;;9.70;92.30;;;;;;5058863;28;20090;-67
2022/04/05 11:50:38;;;;;;;;;;;9.60;92.40;;;;;;5060040;28;19915;-67
2022/04/05 11:53:19;;;;;;;;;;;9.70;92.40;;;;;;5061211;28;20312;-67
2022/04/05 11:56:02;;;;;;;;;;;9.70;92.60;;;;;;5058309;28;19959;-67
2022/04/05 11:58:30;;;;;;;;;;;9.80;92.60;;;;;;5057584;28;19912;-67
2022/04/05 12:00:56;;;;;;;;;;;9.90;92.50;;;;;;5062448;28;19916;-68
2022/04/05 12:03:22;;;;;;;;;;;10.00;92.30;;;;;;5064187;28;19960;-67
2022/04/05 12:05:47;;;;;;;;;;;10.00;92.70;;;;;;5055818;28;20001;-67
2022/04/05 12:08:13;;;;;;;;;;;10.00;92.30;;;;;;5061402;28;19912;-67
2022/04/05 12:10:39;;;;;;;;;;;10.00;92.30;;;;;;5062813;28;20381;-67
2022/04/05 12:13:05;;;;;;;;;;;10.00;92.10;;;;;;5057710;28;19921;-68
2022/04/05 12:15:32;;;;;;;;;;;10.00;92.10;;;;;;5053392;28;20021;-67
2022/04/05 12:18:19;;;;;;;;;;;10.00;92.20;;;;;;5059130;28;20337;-67
2022/04/05 12:21:17;;;;;;;;;;;10.00;92.30;;;;;;5058803;28;19920;-67
2022/04/05 12:23:43;;;;;;;;;;;10.10;92.60;;;;;;5022653;28;19928;-67
2022/04/05 12:26:16;;;;;;;;;;;10.10;92.30;;;;;;5060506;28;19913;-67
2022/04/05 12:28:41;;;;;;;;;;;10.00;92.40;;;;;;5062226;28;19917;-67
2022/04/05 12:31:10;;;;;;;;;;;10.00;92.50;;;;;;5051935;28;19912;-67
2022/04/05 12:33:36;;;;;;;;;;;10.00;92.40;;;;;;5053862;28;20792;-68
2022/04/05 12:36:02;;;;;;;;;;;10.00;92.40;;;;;;5047313;28;19973;-67
2022/04/05 12:38:27;;;;;;;;;;;10.10;92.30;;;;;;5055570;28;20004;-67
2022/04/05 12:40:53;;;;;;;;;;;10.10;92.40;;;;;;5055283;28;19928;-67
2022/04/05 12:43:22;;;;;;;;;;;10.10;92.30;;;;;;5059437;28;19912;-67
2022/04/05 12:45:48;;;;;;;;;;;10.10;92.20;;;;;;5057916;28;20448;-67
2022/04/05 12:48:18;;;;;;;;;;;10.20;92.20;;;;;;5053388;28;20027;-67
2022/04/05 12:50:44;;;;;;;;;;;10.30;92.10;;;;;;5056791;28;19970;-67
2022/04/05 12:53:10;;;;;;;;;;;10.40;92.30;;;;;;5060439;28;19913;-67
2022/04/05 12:55:36;;;;;;;;;;;10.40;92.00;;;;;;5059726;28;20005;-67
2022/04/05 12:58:02;;;;;;;;;;;10.50;92.20;;;;;;5058312;28;19916;-67
2022/04/05 13:00:28;;;;;;;;;;;10.50;91.90;;;;;;5061783;28;20001;-67
2022/04/05 13:02:54;;;;;;;;;;;10.50;92.10;;;;;;5062243;28;19962;-67
2022/04/05 13:08:09;;;;;;;;;;;10.50;92.10;;;;;;5056335;28;20000;-67
2022/04/05 13:10:40;;;;;;;;;;;10.60;92.10;;;;;;5060470;28;19919;-67
2022/04/05 13:13:22;;;;;;;;;;;10.70;92.00;;;;;;5052507;28;20518;-68
2022/04/05 13:15:49;;;;;;;;;;;10.80;91.80;;;;;;5057178;28;19912;-67
2022/04/05 13:18:15;;;;;;;;;;;10.80;92.00;;;;;;5046628;28;19913;-67
2022/04/05 13:20:41;;;;;;;;;;;10.90;91.90;;;;;;5053788;28;19912;-67
2022/04/05 13:23:06;;;;;;;;;;;10.90;91.90;;;;;;5057477;28;19951;-67
2022/04/05 13:25:35;;;;;;;;;;;10.90;91.60;;;;;;5058866;28;19956;-67
2022/04/05 13:28:01;;;;;;;;;;;11.00;91.60;;;;;;5058598;28;20542;-68
2022/04/05 13:30:27;;;;;;;;;;;10.90;91.70;;;;;;5048182;28;19983;-67
2022/04/05 13:33:05;;;;;;;;;;;11.00;91.60;;;;;;5052390;28;20408;-67
2022/04/05 13:35:30;;;;;;;;;;;11.00;91.60;;;;;;5059668;28;19912;-67
2022/04/05 13:37:56;;;;;;;;;;;11.00;91.30;;;;;;5052849;28;19923;-67
2022/04/05 13:40:22;;;;;;;;;;;11.00;91.50;;;;;;5055696;28;20796;-67
2022/04/05 13:42:48;;;;;;;;;;;11.10;91.60;;;;;;5056508;28;19913;-68
2022/04/05 13:45:13;;;;;;;;;;;11.10;91.50;;;;;;5055218;28;19913;-67
2022/04/05 13:47:40;;;;;;;;;;;11.10;91.50;;;;;;5052679;28;20031;-67
2022/04/05 13:50:06;;;;;;;;;;;11.10;91.60;;;;;;5054349;28;20003;-67
2022/04/05 13:52:31;;;;;;;;;;;11.10;91.80;;;;;;5059445;28;20003;-67
2022/04/05 13:54:57;;;;;;;;;;;11.10;91.60;;;;;;5054378;28;19944;-67
2022/04/05 13:57:23;;;;;;;;;;;11.00;91.80;;;;;;5053032;28;19940;-67
2022/04/05 13:59:48;;;;;;;;;;;11.00;91.80;;;;;;5060202;28;20011;-67
2022/04/05 14:02:15;;;;;;;;;;;11.00;92.00;;;;;;5057260;28;20264;-67
2022/04/05 14:04:41;;;;;;;;;;;11.00;91.80;;;;;;5049858;28;19913;-67
2022/04/05 14:07:10;;;;;;;;;;;11.00;92.20;;;;;;5054524;28;20362;-67
2022/04/05 14:09:35;;;;;;;;;;;11.00;92.20;;;;;;5058839;28;20345;-67
2022/04/05 14:12:01;;;;;;;;;;;11.00;92.30;;;;;;5050437;28;20018;-67
2022/04/05 14:14:26;;;;;;;;;;;11.00;92.20;;;;;;5055848;28;20007;-67
2022/04/05 14:16:53;;;;;;;;;;;11.00;92.10;;;;;;5056820;28;19965;-67
2022/04/05 14:19:19;;;;;;;;;;;11.00;92.10;;;;;;5059382;28;20373;-67
2022/04/05 14:21:44;;;;;;;;;;;11.00;92.10;;;;;;5057230;28;19924;-67
2022/04/05 14:24:11;;;;;;;;;;;10.90;92.00;;;;;;5058596;28;20027;-67
2022/04/05 14:26:36;;;;;;;;;;;10.90;92.00;;;;;;5055605;28;19916;-67
2022/04/05 14:29:03;;;;;;;;;;;10.90;91.90;;;;;;5058494;28;19982;-67
2022/04/05 14:31:28;;;;;;;;;;;10.90;91.80;;;;;;5059265;28;19917;-67